createdAt,value
2022-10-28T00:01:26.444Z,55.58
2022-10-28T00:03:53.072Z,55.49
2022-10-28T00:06:19.398Z,55.78
2022-10-28T00:08:45.822Z,55.84
2022-10-28T00:11:12.181Z,55.63
2022-10-28T00:13:38.552Z,55.66
2022-10-28T00:16:05.068Z,55.21
2022-10-28T00:18:31.470Z,55.77
2022-10-28T00:20:57.870Z,56.16
2022-10-28T00:23:24.497Z,55.65
2022-10-28T00:25:50.876Z,55.74
2022-10-28T00:28:17.395Z,55.63
2022-10-28T00:30:44.142Z,55.46
2022-10-28T00:33:10.994Z,55.78
2022-10-28T00:35:37.620Z,55.71
2022-10-28T00:38:04.419Z,55.55
2022-10-28T00:40:30.909Z,55.64
2022-10-28T00:42:57.297Z,55.83
2022-10-28T00:45:23.783Z,55.82
2022-10-28T00:47:50.594Z,55.84
2022-10-28T00:50:17.126Z,55.88
2022-10-28T00:52:43.545Z,55.88
2022-10-28T00:55:10.082Z,55.78
2022-10-28T00:57:36.572Z,55.70
2022-10-28T01:00:02.995Z,56.10
2022-10-28T01:02:29.434Z,55.78
2022-10-28T01:04:55.833Z,55.65
2022-10-28T01:07:22.237Z,56.10
2022-10-28T01:09:48.611Z,56.14
2022-10-28T01:12:15.007Z,55.73
2022-10-28T01:14:41.629Z,55.46
2022-10-28T01:17:09.021Z,55.45
2022-10-28T01:19:35.420Z,55.17
2022-10-28T01:22:03.713Z,55.75
2022-10-28T01:24:32.126Z,55.63
2022-10-28T01:26:58.832Z,55.49
2022-10-28T01:29:25.232Z,55.35
2022-10-28T01:31:51.816Z,55.68
2022-10-28T01:34:18.232Z,55.09
2022-10-28T01:36:46.528Z,55.51
2022-10-28T01:39:12.894Z,55.48
2022-10-28T01:41:39.387Z,55.62
2022-10-28T01:44:06.169Z,55.67
2022-10-28T01:46:32.528Z,55.17
2022-10-28T01:48:58.921Z,55.51
2022-10-28T01:51:25.894Z,55.66
2022-10-28T01:53:52.442Z,55.84
2022-10-28T01:56:18.900Z,55.59
2022-10-28T01:58:46.314Z,56.28
2022-10-28T02:01:12.859Z,56.10
2022-10-28T02:03:39.270Z,55.68
2022-10-28T02:06:06.091Z,55.98
2022-10-28T02:08:32.923Z,55.63
2022-10-28T02:10:59.363Z,55.69
2022-10-28T02:13:25.817Z,55.68
2022-10-28T02:15:52.443Z,55.85
2022-10-28T02:18:18.810Z,55.36
2022-10-28T02:20:45.311Z,55.78
2022-10-28T02:23:11.680Z,55.58
2022-10-28T02:25:38.104Z,56.04
2022-10-28T02:28:04.792Z,55.87
2022-10-28T02:30:31.178Z,55.57
2022-10-28T02:32:57.572Z,56.42
2022-10-28T02:35:24.128Z,55.71
2022-10-28T02:37:50.850Z,55.31
2022-10-28T02:40:17.236Z,55.55
2022-10-28T02:42:43.929Z,55.76
2022-10-28T02:45:10.700Z,55.98
2022-10-28T02:47:37.221Z,55.68
2022-10-28T02:50:03.568Z,55.85
2022-10-28T02:52:29.925Z,55.81
2022-10-28T02:54:56.456Z,55.89
2022-10-28T02:57:23.762Z,55.31
2022-10-28T02:59:50.552Z,55.79
2022-10-28T03:02:17.013Z,55.94
2022-10-28T03:04:43.508Z,56.10
2022-10-28T03:07:09.911Z,56.11
2022-10-28T03:09:36.321Z,55.93
2022-10-28T03:25:43.806Z,55.79
2022-10-28T03:28:11.618Z,55.88
2022-10-28T03:30:38.073Z,56.17
2022-10-28T03:33:05.048Z,56.15
2022-10-28T03:35:31.429Z,56.34
2022-10-28T03:37:57.951Z,56.10
2022-10-28T03:40:24.791Z,56.08
2022-10-28T03:42:51.441Z,55.82
2022-10-28T03:45:18.292Z,55.42
2022-10-28T03:47:44.911Z,56.10
2022-10-28T03:50:11.428Z,56.07
2022-10-28T03:52:37.847Z,55.95
2022-10-28T03:55:04.406Z,56.64
2022-10-28T03:57:30.760Z,56.16
2022-10-28T03:59:57.308Z,56.07
2022-10-28T04:02:24.140Z,56.04
2022-10-28T04:04:50.601Z,55.97
2022-10-28T04:07:16.963Z,56.47
2022-10-28T04:09:43.502Z,56.19
2022-10-28T04:12:09.986Z,56.15
2022-10-28T04:14:36.390Z,55.96
2022-10-28T04:17:02.975Z,56.05
2022-10-28T04:19:29.414Z,55.95
2022-10-28T04:21:55.790Z,55.96
2022-10-28T04:24:22.437Z,56.39
2022-10-28T04:26:48.791Z,56.29
2022-10-28T04:29:15.259Z,56.28
2022-10-28T04:31:41.938Z,56.69
2022-10-28T04:34:08.410Z,56.53
2022-10-28T04:36:34.785Z,56.62
2022-10-28T04:39:01.745Z,56.24
2022-10-28T04:41:29.179Z,56.26
2022-10-28T04:43:55.722Z,56.19
2022-10-28T04:46:22.127Z,56.20
2022-10-28T04:48:48.567Z,55.98
2022-10-28T04:51:17.275Z,56.40
2022-10-28T04:53:43.922Z,56.07
2022-10-28T04:56:10.380Z,56.02
2022-10-28T04:58:36.764Z,56.10
2022-10-28T05:01:03.495Z,56.52
2022-10-28T05:03:29.978Z,56.78
2022-10-28T05:05:56.377Z,56.83
2022-10-28T05:08:23.134Z,56.62
2022-10-28T05:10:49.510Z,56.63
2022-10-28T05:13:16.071Z,56.57
2022-10-28T05:15:43.012Z,56.28
2022-10-28T05:18:09.367Z,55.92
2022-10-28T05:20:35.731Z,56.15
2022-10-28T05:23:02.618Z,56.31
2022-10-28T05:25:29.002Z,56.32
2022-10-28T05:27:55.339Z,56.79
2022-10-28T05:30:22.804Z,56.80
2022-10-28T05:32:51.591Z,56.67
2022-10-28T05:35:20.899Z,56.75
2022-10-28T05:37:47.700Z,56.56
2022-10-28T05:40:14.133Z,56.66
2022-10-28T05:42:40.774Z,56.47
2022-10-28T05:45:07.283Z,56.39
2022-10-28T05:47:35.321Z,56.44
2022-10-28T05:50:04.735Z,56.34
2022-10-28T05:52:31.716Z,56.17
2022-10-28T05:54:58.115Z,56.25
2022-10-28T05:57:24.547Z,56.37
2022-10-28T05:59:52.276Z,56.10
2022-10-28T06:02:18.994Z,56.52
2022-10-28T06:04:45.362Z,56.31
2022-10-28T06:07:12.042Z,56.31
2022-10-28T06:09:40.477Z,56.40
2022-10-28T06:12:05.380Z,56.13
2022-10-28T06:14:32.291Z,56.13
2022-10-28T06:16:58.941Z,56.24
2022-10-28T06:19:25.309Z,56.33
2022-10-28T06:21:51.870Z,56.30
2022-10-28T06:24:18.453Z,56.30
2022-10-28T06:26:45.342Z,55.21
2022-10-28T06:29:11.846Z,55.53
2022-10-28T06:31:38.485Z,55.48
2022-10-28T06:34:05.218Z,55.65
2022-10-28T06:36:31.780Z,55.67
2022-10-28T06:38:58.222Z,55.92
2022-10-28T06:41:24.688Z,55.86
2022-10-28T06:43:51.136Z,56.13
2022-10-28T06:46:17.702Z,56.64
2022-10-28T06:48:45.650Z,55.48
2022-10-28T06:51:12.603Z,54.82
2022-10-28T06:53:38.938Z,55.34
2022-10-28T06:56:05.479Z,55.51
2022-10-28T06:58:32.415Z,55.37
2022-10-28T07:00:59.025Z,55.43
2022-10-28T07:03:25.358Z,55.22
2022-10-28T07:05:52.050Z,54.73
2022-10-28T07:08:18.473Z,55.53
2022-10-28T07:10:44.907Z,55.09
2022-10-28T07:13:12.520Z,55.28
2022-10-28T07:15:41.446Z,54.91
2022-10-28T07:18:07.884Z,56.00
2022-10-28T07:20:34.397Z,56.20
2022-10-28T07:23:01.268Z,56.05
2022-10-28T07:25:27.831Z,55.61
2022-10-28T07:27:55.769Z,55.26
2022-10-28T07:30:22.569Z,54.65
2022-10-28T07:32:49.277Z,55.26
2022-10-28T07:35:15.984Z,55.13
2022-10-28T07:37:42.394Z,55.08
2022-10-28T07:40:08.786Z,54.96
2022-10-28T07:42:35.890Z,54.99
2022-10-28T07:45:02.278Z,54.80
2022-10-28T07:47:28.732Z,55.14
2022-10-28T07:49:55.922Z,55.17
2022-10-28T07:52:22.290Z,55.96
2022-10-28T07:54:48.697Z,56.07
2022-10-28T07:57:15.629Z,55.72
2022-10-28T07:59:42.037Z,55.33
2022-10-28T08:02:08.464Z,55.35
2022-10-28T08:04:34.915Z,55.75
2022-10-28T08:07:02.519Z,55.63
2022-10-28T08:09:29.078Z,55.10
2022-10-28T08:11:55.544Z,55.28
2022-10-28T08:14:22.916Z,55.51
2022-10-28T08:16:49.368Z,55.94
2022-10-28T08:19:16.146Z,56.37
2022-10-28T08:21:43.275Z,55.73
2022-10-28T08:24:12.791Z,55.93
2022-10-28T08:26:39.185Z,55.53
2022-10-28T08:29:05.564Z,56.14
2022-10-28T08:31:31.944Z,57.01
2022-10-28T08:33:58.446Z,56.71
2022-10-28T08:36:25.351Z,57.00
2022-10-28T08:38:51.718Z,56.54
2022-10-28T08:41:18.910Z,54.94
2022-10-28T08:43:57.233Z,54.50
2022-10-28T08:46:24.214Z,55.14
2022-10-28T08:48:50.755Z,55.03
2022-10-28T08:51:17.136Z,54.74
2022-10-28T08:53:43.555Z,54.75
2022-10-28T08:56:10.219Z,54.21
2022-10-28T08:58:36.593Z,54.21
2022-10-28T09:01:03.101Z,54.09
2022-10-28T09:03:34.305Z,54.07
2022-10-28T09:06:03.247Z,54.10
2022-10-28T09:08:29.789Z,54.55
2022-10-28T09:10:56.189Z,53.60
2022-10-28T09:13:22.674Z,54.67
2022-10-28T09:15:49.058Z,55.11
2022-10-28T09:18:15.683Z,55.20
2022-10-28T09:20:43.284Z,55.45
2022-10-28T09:23:09.675Z,54.58
2022-10-28T09:25:36.050Z,54.79
2022-10-28T09:28:02.483Z,54.71
2022-10-28T09:30:28.989Z,54.41
2022-10-28T09:32:55.677Z,54.39
2022-10-28T09:35:22.875Z,54.45
2022-10-28T09:37:50.459Z,54.54
2022-10-28T09:40:16.905Z,54.29
2022-10-28T09:42:43.945Z,54.06
2022-10-28T09:45:10.326Z,54.40
2022-10-28T09:47:36.753Z,54.35
2022-10-28T09:50:03.908Z,54.46
2022-10-28T09:52:30.514Z,55.02
2022-10-28T09:54:56.923Z,54.62
2022-10-28T09:57:23.522Z,54.73
2022-10-28T09:59:49.934Z,54.40
2022-10-28T10:02:16.299Z,53.50
2022-10-28T10:04:43.915Z,53.32
2022-10-28T10:07:10.316Z,53.74
2022-10-28T10:09:37.805Z,53.84
2022-10-28T10:12:04.251Z,54.04
2022-10-28T10:14:30.790Z,53.83
2022-10-28T10:16:57.188Z,54.11
2022-10-28T10:19:23.617Z,54.44
2022-10-28T10:21:49.999Z,54.48
2022-10-28T10:24:22.159Z,53.96
2022-10-28T10:26:48.958Z,53.81
2022-10-28T10:29:15.310Z,53.55
2022-10-28T10:31:41.655Z,53.54
2022-10-28T10:34:08.343Z,53.76
2022-10-28T10:36:34.734Z,53.72
2022-10-28T10:39:01.092Z,53.71
2022-10-28T10:41:28.020Z,53.70
2022-10-28T10:43:54.425Z,54.58
2022-10-28T10:46:20.841Z,54.51
2022-10-28T10:48:48.792Z,54.59
2022-10-28T10:51:15.357Z,54.08
2022-10-28T10:53:42.001Z,54.13
2022-10-28T10:56:08.458Z,53.86
2022-10-28T10:58:34.958Z,53.57
2022-10-28T11:01:01.333Z,54.29
2022-10-28T11:03:28.081Z,53.81
2022-10-28T11:06:18.202Z,54.16
2022-10-28T11:08:45.626Z,54.49
2022-10-28T11:11:12.026Z,54.25
2022-10-28T11:13:40.068Z,54.38
2022-10-28T11:16:08.991Z,54.57
2022-10-28T11:18:35.367Z,54.42
2022-10-28T11:21:01.806Z,53.59
2022-10-28T11:23:28.526Z,54.05
2022-10-28T11:25:54.993Z,54.29
2022-10-28T11:28:21.560Z,54.20
2022-10-28T11:30:48.213Z,54.33
2022-10-28T11:33:29.493Z,53.84
2022-10-28T11:35:56.911Z,53.82
2022-10-28T11:38:23.615Z,54.04
2022-10-28T11:40:50.048Z,54.23
2022-10-28T11:43:17.054Z,53.95
2022-10-28T11:45:47.137Z,53.87
2022-10-28T11:48:17.585Z,53.86
2022-10-28T11:50:44.191Z,53.70
2022-10-28T11:53:10.599Z,53.57
2022-10-28T11:55:39.542Z,54.02
2022-10-28T11:58:06.203Z,53.01
2022-10-28T12:00:32.677Z,53.51
2022-10-28T12:02:59.578Z,53.97
2022-10-28T12:05:26.364Z,53.76
2022-10-28T12:07:52.866Z,54.04
2022-10-28T12:10:19.480Z,53.55
2022-10-28T12:12:48.795Z,54.58
2022-10-28T12:15:19.833Z,54.97
2022-10-28T12:17:46.656Z,54.13
2022-10-28T12:20:13.214Z,53.96
2022-10-28T12:22:39.806Z,53.43
2022-10-28T12:25:06.351Z,53.30
2022-10-28T12:27:32.807Z,53.54
2022-10-28T12:29:59.305Z,53.34
2022-10-28T12:32:25.733Z,53.68
2022-10-28T12:34:53.120Z,53.94
2022-10-28T12:37:19.505Z,53.45
2022-10-28T12:39:45.951Z,53.43
2022-10-28T12:42:12.293Z,53.43
2022-10-28T12:44:38.723Z,53.80
2022-10-28T12:47:05.357Z,53.70
2022-10-28T12:49:31.749Z,53.14
2022-10-28T12:51:58.136Z,53.25
2022-10-28T12:54:24.590Z,53.22
2022-10-28T12:56:51.234Z,53.52
2022-10-28T12:59:17.615Z,53.82
2022-10-28T13:01:44.571Z,53.35
2022-10-28T13:04:11.013Z,53.29
2022-10-28T13:09:08.980Z,53.95
2022-10-28T13:11:37.462Z,54.04
2022-10-28T13:14:03.997Z,53.89
2022-10-28T13:16:31.587Z,53.89
2022-10-28T13:18:59.214Z,53.74
2022-10-28T13:21:25.616Z,53.49
2022-10-28T13:23:52.633Z,53.71
2022-10-28T13:26:19.052Z,53.95
2022-10-28T13:28:45.752Z,53.38
2022-10-28T13:31:14.507Z,53.36
2022-10-28T13:33:40.919Z,53.50
2022-10-28T13:36:10.393Z,53.49
2022-10-28T13:38:36.846Z,53.53
2022-10-28T13:41:03.566Z,53.81
2022-10-28T13:43:30.189Z,54.84
2022-10-28T13:45:58.729Z,55.33
2022-10-28T13:48:25.155Z,55.46
2022-10-28T13:50:51.540Z,55.21
2022-10-28T13:53:18.239Z,54.98
2022-10-28T13:55:44.670Z,55.19
2022-10-28T13:58:11.211Z,54.61
2022-10-28T14:00:37.757Z,54.27
2022-10-28T14:03:04.250Z,54.10
2022-10-28T14:05:33.107Z,53.74
2022-10-28T14:07:59.548Z,51.76
2022-10-28T14:10:26.000Z,53.27
2022-10-28T14:12:52.761Z,53.13
2022-10-28T14:15:19.828Z,53.29
2022-10-28T14:17:46.215Z,52.96
2022-10-28T14:20:12.642Z,53.59
2022-10-28T14:22:39.327Z,53.78
2022-10-28T14:25:05.765Z,53.17
2022-10-28T14:27:32.352Z,52.96
2022-10-28T14:29:59.163Z,53.18
2022-10-28T14:32:25.794Z,53.63
2022-10-28T14:34:52.655Z,53.72
2022-10-28T14:37:23.199Z,54.05
2022-10-28T14:39:50.862Z,54.12
2022-10-28T14:42:17.626Z,54.33
2022-10-28T14:44:47.810Z,54.28
2022-10-28T14:47:14.350Z,54.14
2022-10-28T14:49:41.108Z,54.30
2022-10-28T14:52:08.161Z,54.49
2022-10-28T14:54:39.683Z,54.12
2022-10-28T14:57:07.281Z,54.22
2022-10-28T14:59:34.857Z,54.56
2022-10-28T15:02:01.341Z,54.42
2022-10-28T15:04:27.928Z,54.45
2022-10-28T15:06:54.923Z,54.56
2022-10-28T15:09:21.237Z,54.81
2022-10-28T15:11:49.646Z,54.88
2022-10-28T15:14:16.294Z,54.24
2022-10-28T15:16:42.796Z,54.05
2022-10-28T15:19:09.227Z,54.45
2022-10-28T15:21:35.627Z,54.43
2022-10-28T15:24:02.017Z,54.76
2022-10-28T15:26:28.598Z,55.11
2022-10-28T15:28:55.316Z,54.29
2022-10-28T15:31:22.168Z,54.29
2022-10-28T15:33:48.730Z,54.32
2022-10-28T15:36:18.252Z,53.94
2022-10-28T15:38:45.045Z,54.02
2022-10-28T15:41:11.474Z,54.14
2022-10-28T15:43:37.936Z,54.49
2022-10-28T15:46:04.357Z,54.69
2022-10-28T15:48:30.790Z,54.60
2022-10-28T15:50:57.446Z,54.81
2022-10-28T15:53:24.832Z,54.97
2022-10-28T15:58:37.679Z,54.60
2022-10-28T16:01:04.111Z,54.88
2022-10-28T16:06:01.895Z,54.75
2022-10-28T16:08:29.280Z,55.64
2022-10-28T16:10:55.624Z,56.04
2022-10-28T16:13:22.100Z,55.43
2022-10-28T16:15:48.435Z,55.30
2022-10-28T16:18:15.126Z,54.96
2022-10-28T16:20:41.561Z,55.13
2022-10-28T16:23:07.955Z,55.05
2022-10-28T16:25:34.439Z,55.79
2022-10-28T16:28:01.222Z,56.45
2022-10-28T16:30:27.568Z,57.06
2022-10-28T16:32:54.220Z,56.61
2022-10-28T16:35:21.092Z,56.12
2022-10-28T16:37:50.685Z,56.11
2022-10-28T16:40:45.717Z,54.67
2022-10-28T16:43:08.255Z,54.60
2022-10-28T16:45:34.699Z,54.81
2022-10-28T16:48:01.084Z,54.72
2022-10-28T16:50:27.462Z,55.38
2022-10-28T16:52:53.807Z,55.98
2022-10-28T16:55:20.235Z,56.40
2022-10-28T16:57:46.699Z,55.95
2022-10-28T17:00:13.345Z,56.05
2022-10-28T17:02:39.897Z,55.95
2022-10-28T17:05:06.723Z,55.98
2022-10-28T17:07:33.360Z,55.81
2022-10-28T17:09:59.744Z,55.92
2022-10-28T17:12:26.265Z,56.01
2022-10-28T17:14:52.630Z,56.03
2022-10-28T17:17:19.844Z,56.30
2022-10-28T17:19:46.729Z,56.48
2022-10-28T17:22:14.401Z,56.44
2022-10-28T17:24:40.837Z,56.56
2022-10-28T17:27:07.678Z,56.22
2022-10-28T17:29:34.607Z,56.82
2022-10-28T17:32:01.126Z,56.49
2022-10-28T17:34:27.606Z,57.14
2022-10-28T17:36:54.447Z,57.27
2022-10-28T17:39:25.862Z,56.71
2022-10-28T17:41:53.180Z,56.57
2022-10-28T17:44:19.701Z,56.51
2022-10-28T17:46:46.168Z,56.88
2022-10-28T17:49:12.953Z,56.36
2022-10-28T17:51:39.391Z,56.82
2022-10-28T17:54:06.216Z,57.16
2022-10-28T17:56:32.951Z,56.78
2022-10-28T17:58:59.303Z,56.74
2022-10-28T18:01:27.160Z,56.55
2022-10-28T18:03:54.805Z,56.42
2022-10-28T18:06:21.629Z,56.49
2022-10-28T18:08:48.460Z,56.88
2022-10-28T18:11:15.970Z,56.61
2022-10-28T18:13:42.416Z,56.60
2022-10-28T18:16:09.317Z,57.41
2022-10-28T18:18:41.067Z,57.08
2022-10-28T18:21:10.389Z,56.75
2022-10-28T18:23:37.655Z,56.69
2022-10-28T18:26:04.323Z,57.34
2022-10-28T18:28:32.020Z,57.14
2022-10-28T18:30:59.719Z,56.95
2022-10-28T18:33:26.121Z,56.78
2022-10-28T18:35:53.382Z,56.71
2022-10-28T18:38:20.680Z,56.76
2022-10-28T18:40:47.177Z,56.52
2022-10-28T18:43:13.594Z,56.38
2022-10-28T18:45:40.301Z,56.77
2022-10-28T18:48:07.974Z,56.44
2022-10-28T18:50:34.740Z,56.29
2022-10-28T18:53:01.906Z,56.17
2022-10-28T18:55:29.599Z,56.34
2022-10-28T18:57:56.460Z,56.76
2022-10-28T19:00:23.194Z,56.64
2022-10-28T19:02:49.961Z,56.86
2022-10-28T19:05:16.893Z,56.79
2022-10-28T19:07:43.643Z,56.86
2022-10-28T19:10:10.234Z,56.81
2022-10-28T19:12:42.770Z,57.08
2022-10-28T19:15:11.960Z,56.59
2022-10-28T19:17:38.469Z,56.62
2022-10-28T19:20:04.852Z,56.97
2022-10-28T19:22:31.405Z,57.03
2022-10-28T19:24:58.207Z,56.89
2022-10-28T19:27:25.503Z,56.86
2022-10-28T19:29:52.287Z,56.95
2022-10-28T19:32:18.705Z,57.13
2022-10-28T19:34:45.391Z,56.91
2022-10-28T19:37:12.485Z,56.85
2022-10-28T19:39:39.513Z,57.13
2022-10-28T19:42:06.698Z,57.47
2022-10-28T19:44:33.678Z,57.32
2022-10-28T19:47:00.333Z,56.94
2022-10-28T19:49:37.271Z,57.13
2022-10-28T19:52:06.833Z,57.25
2022-10-28T19:54:33.404Z,57.19
2022-10-28T19:57:00.477Z,57.14
2022-10-28T19:59:27.295Z,57.21
2022-10-28T20:01:53.878Z,56.97
2022-10-28T20:04:20.688Z,57.02
2022-10-28T20:06:47.511Z,57.14
2022-10-28T20:09:14.019Z,57.04
2022-10-28T20:11:40.483Z,57.32
2022-10-28T20:14:07.495Z,57.71
2022-10-28T20:16:35.113Z,57.23
2022-10-28T20:19:01.884Z,58.00
2022-10-28T20:21:31.598Z,57.41
2022-10-28T20:23:58.751Z,57.53
2022-10-28T20:26:25.335Z,58.40
2022-10-28T20:28:51.847Z,58.47
2022-10-28T20:31:18.410Z,58.11
2022-10-28T20:33:46.473Z,57.98
2022-10-28T20:36:13.073Z,57.74
2022-10-28T20:38:39.951Z,57.45
2022-10-28T20:41:06.487Z,57.61
2022-10-28T20:43:33.207Z,58.00
2022-10-28T20:45:59.825Z,58.31
2022-10-28T20:48:26.229Z,57.94
2022-10-28T20:50:52.622Z,57.90
2022-10-28T20:53:19.480Z,57.80
2022-10-28T20:55:45.881Z,57.35
2022-10-28T20:58:12.591Z,57.43
2022-10-28T21:00:39.002Z,57.51
2022-10-28T21:03:05.491Z,57.25
2022-10-28T21:05:32.537Z,57.50
2022-10-28T21:07:58.917Z,57.28
2022-10-28T21:10:25.372Z,57.51
2022-10-28T21:12:51.761Z,58.05
2022-10-28T21:15:18.179Z,57.94
2022-10-28T21:17:44.609Z,57.75
2022-10-28T21:20:11.079Z,57.85
2022-10-28T21:22:37.466Z,57.58
2022-10-28T21:25:04.327Z,57.37
2022-10-28T21:27:30.763Z,57.94
2022-10-28T21:29:58.247Z,57.91
2022-10-28T21:32:24.831Z,57.77
2022-10-28T21:34:51.464Z,57.84
2022-10-28T21:37:17.872Z,57.61
2022-10-28T21:39:44.521Z,57.95
2022-10-28T21:42:10.971Z,57.48
2022-10-28T21:44:37.412Z,57.49
2022-10-28T21:47:03.829Z,57.37
2022-10-28T21:49:30.535Z,57.43
2022-10-28T21:51:56.941Z,57.83
2022-10-28T21:54:23.293Z,57.66
2022-10-28T21:56:49.778Z,57.32
2022-10-28T21:59:16.185Z,57.83
2022-10-28T22:01:42.744Z,57.83
2022-10-28T22:04:09.485Z,57.76
2022-10-28T22:06:35.860Z,58.15
2022-10-28T22:09:02.415Z,58.48
2022-10-28T22:11:29.166Z,58.62
2022-10-28T22:13:55.692Z,58.23
2022-10-28T22:16:22.070Z,58.39
2022-10-28T22:18:48.769Z,58.39
2022-10-28T22:21:15.227Z,58.01
2022-10-28T22:23:41.595Z,57.72
2022-10-28T22:26:08.230Z,57.75
2022-10-28T22:28:34.590Z,57.73
2022-10-28T22:31:00.957Z,57.69
2022-10-28T22:33:27.970Z,57.59
2022-10-28T22:35:54.624Z,57.58
2022-10-28T22:38:21.540Z,57.84
2022-10-28T22:40:49.038Z,57.75
2022-10-28T22:43:15.608Z,58.20
2022-10-28T22:45:42.170Z,57.77
2022-10-28T22:48:09.466Z,57.79
2022-10-28T22:50:35.980Z,58.06
2022-10-28T22:53:05.313Z,57.85
2022-10-28T22:55:32.008Z,57.87
2022-10-28T22:57:58.914Z,57.60
2022-10-28T23:00:25.492Z,57.72
2022-10-28T23:02:52.160Z,57.80
2022-10-28T23:05:18.697Z,57.67
2022-10-28T23:07:46.305Z,57.57
2022-10-28T23:10:13.043Z,57.60
2022-10-28T23:12:40.734Z,57.71
2022-10-28T23:15:07.585Z,58.01
2022-10-28T23:17:34.079Z,58.09
2022-10-28T23:20:00.450Z,57.65
2022-10-28T23:22:27.179Z,57.71
2022-10-28T23:24:53.610Z,57.85
2022-10-28T23:27:20.073Z,57.80
2022-10-28T23:29:47.671Z,57.76
2022-10-28T23:32:14.612Z,57.88
2022-10-28T23:34:40.983Z,57.81
2022-10-28T23:37:07.757Z,58.18
2022-10-28T23:39:34.961Z,57.78
2022-10-28T23:42:01.445Z,57.75
2022-10-28T23:44:27.908Z,57.51
2022-10-28T23:46:54.915Z,57.80
2022-10-28T23:49:21.295Z,57.88
2022-10-28T23:51:47.776Z,58.03
2022-10-28T23:54:14.902Z,58.40
2022-10-28T23:56:41.588Z,58.22
2022-10-28T23:59:08.002Z,57.84
